createdAt,value
2018-05-01T00:01:17.120Z,94674
2018-05-01T00:03:47.785Z,94684
2018-05-01T00:06:18.490Z,94683
2018-05-01T00:08:49.096Z,94682
2018-05-01T00:11:19.952Z,94673
2018-05-01T00:13:50.740Z,94669
2018-05-01T00:16:21.535Z,94658
2018-05-01T00:18:52.676Z,94661
2018-05-01T00:21:23.408Z,94669
2018-05-01T00:23:54.009Z,94667
2018-05-01T00:26:24.694Z,94664
2018-05-01T00:28:55.348Z,94663
2018-05-01T00:31:26.118Z,94661
2018-05-01T00:33:57.059Z,94661
2018-05-01T00:36:27.719Z,94669
2018-05-01T00:38:58.374Z,94666
2018-05-01T00:41:29.079Z,94666
2018-05-01T00:43:59.938Z,94657
2018-05-01T00:46:30.691Z,94662
2018-05-01T00:49:01.399Z,94654
2018-05-01T00:51:32.416Z,94648
2018-05-01T00:54:03.140Z,94646
2018-05-01T00:56:33.698Z,94647
2018-05-01T00:59:04.309Z,94658
2018-05-01T01:01:35.010Z,94655
2018-05-01T01:04:05.803Z,94652
2018-05-01T01:06:36.533Z,94647
2018-05-01T01:09:07.413Z,94648
2018-05-01T01:11:38.372Z,94647
2018-05-01T01:14:09.196Z,94651
2018-05-01T01:16:39.923Z,94652
2018-05-01T01:19:10.685Z,94654
2018-05-01T01:21:41.365Z,94660
2018-05-01T01:24:11.992Z,94661
2018-05-01T01:26:43.031Z,94657
2018-05-01T01:29:13.642Z,94653
2018-05-01T01:31:44.321Z,94662
2018-05-01T01:34:15.052Z,94656
2018-05-01T01:36:44.167Z,94656
2018-05-01T01:39:13.332Z,94652
2018-05-01T01:41:42.552Z,94670
2018-05-01T01:44:11.655Z,94676
2018-05-01T01:46:40.744Z,94675
2018-05-01T01:49:09.983Z,94679
2018-05-01T01:51:39.153Z,94679
2018-05-01T01:54:08.333Z,94681
2018-05-01T01:56:37.640Z,94681
2018-05-01T01:59:06.805Z,94685
2018-05-01T02:01:37.766Z,94681
2018-05-01T02:04:07.059Z,94686
2018-05-01T02:06:36.103Z,94684
2018-05-01T02:09:05.224Z,94683
2018-05-01T02:11:34.317Z,94687
2018-05-01T02:14:03.456Z,94682
2018-05-01T02:16:32.644Z,94681
2018-05-01T02:19:01.912Z,94678
2018-05-01T02:21:31.040Z,94675
2018-05-01T02:24:00.305Z,94676
2018-05-01T02:26:29.384Z,94680
2018-05-01T02:28:58.529Z,94679
2018-05-01T02:31:27.660Z,94675
2018-05-01T02:33:56.783Z,94680
2018-05-01T02:36:25.941Z,94676
2018-05-01T02:38:55.217Z,94668
2018-05-01T02:41:24.446Z,94676
2018-05-01T02:43:53.665Z,94679
2018-05-01T02:46:22.865Z,94676
2018-05-01T02:48:51.859Z,94665
2018-05-01T02:51:21.187Z,94673
2018-05-01T02:53:50.744Z,94669
2018-05-01T02:56:20.036Z,94668
2018-05-01T02:58:49.138Z,94670
2018-05-01T03:01:18.294Z,94677
2018-05-01T03:03:47.328Z,94670
2018-05-01T03:06:16.440Z,94675
2018-05-01T03:08:45.597Z,94676
2018-05-01T03:11:14.920Z,94686
2018-05-01T03:13:44.102Z,94684
2018-05-01T03:16:13.227Z,94687
2018-05-01T03:18:42.284Z,94688
2018-05-01T03:21:11.475Z,94683
2018-05-01T03:23:40.630Z,94668
2018-05-01T03:26:09.761Z,94668
2018-05-01T03:28:38.944Z,94692
2018-05-01T03:31:08.050Z,94693
2018-05-01T03:33:37.114Z,94691
2018-05-01T03:36:06.145Z,94702
2018-05-01T03:38:35.382Z,94699
2018-05-01T03:41:04.492Z,94697
2018-05-01T03:43:33.579Z,94697
2018-05-01T03:46:02.701Z,94719
2018-05-01T03:48:32.284Z,94718
2018-05-01T03:51:01.538Z,94714
2018-05-01T03:53:30.635Z,94715
2018-05-01T03:55:59.872Z,94738
2018-05-01T03:58:28.900Z,94728
2018-05-01T04:00:58.512Z,94727
2018-05-01T04:03:27.525Z,94715
2018-05-01T04:05:56.716Z,94726
2018-05-01T04:08:25.872Z,94708
2018-05-01T04:10:54.959Z,94711
2018-05-01T04:13:24.085Z,94718
2018-05-01T04:15:53.268Z,94724
2018-05-01T04:18:22.381Z,94715
2018-05-01T04:20:51.440Z,94735
2018-05-01T04:23:20.653Z,94743
2018-05-01T04:25:49.784Z,94740
2018-05-01T04:28:18.923Z,94757
2018-05-01T04:30:48.017Z,94755
2018-05-01T04:33:17.269Z,94747
2018-05-01T04:35:46.401Z,94737
2018-05-01T04:38:15.565Z,94750
2018-05-01T04:40:44.642Z,94759
2018-05-01T04:43:13.744Z,94749
2018-05-01T04:45:43.049Z,94753
2018-05-01T04:48:12.251Z,94757
2018-05-01T04:50:41.328Z,94766
2018-05-01T04:53:10.469Z,94749
2018-05-01T04:55:39.788Z,94758
2018-05-01T04:58:08.901Z,94762
2018-05-01T05:00:38.120Z,94772
2018-05-01T05:03:07.281Z,94789
2018-05-01T05:05:36.386Z,94805
2018-05-01T05:08:05.586Z,94813
2018-05-01T05:10:34.736Z,94805
2018-05-01T05:13:03.903Z,94816
2018-05-01T05:15:33.247Z,94825
2018-05-01T05:18:02.375Z,94817
2018-05-01T05:20:31.657Z,94804
2018-05-01T05:23:00.670Z,94797
2018-05-01T05:25:30.032Z,94796
2018-05-01T05:27:59.125Z,94814
2018-05-01T05:30:28.308Z,94808
2018-05-01T05:32:57.441Z,94805
2018-05-01T05:35:26.701Z,94813
2018-05-01T05:37:55.881Z,94830
2018-05-01T05:40:25.307Z,94851
2018-05-01T05:42:54.662Z,94850
2018-05-01T05:45:23.788Z,94849
2018-05-01T05:47:52.930Z,94851
2018-05-01T05:50:23.440Z,94850
2018-05-01T05:52:52.745Z,94854
2018-05-01T05:55:21.853Z,94865
2018-05-01T05:57:57.292Z,94858
2018-05-01T06:00:26.768Z,94849
2018-05-01T06:02:56.350Z,94866
2018-05-01T06:05:26.113Z,94874
2018-05-01T06:07:55.530Z,94875
2018-05-01T06:10:24.924Z,94884
2018-05-01T06:12:54.935Z,94891
2018-05-01T06:15:24.311Z,94904
2018-05-01T06:17:53.940Z,94894
2018-05-01T06:20:23.229Z,94886
2018-05-01T06:22:52.981Z,94896
2018-05-01T06:25:22.227Z,94887
2018-05-01T06:27:51.662Z,94892
2018-05-01T06:30:21.336Z,94887
2018-05-01T06:32:50.619Z,94889
2018-05-01T06:35:20.303Z,94895
2018-05-01T06:37:50.026Z,94897
2018-05-01T06:40:19.955Z,94896
2018-05-01T06:42:49.660Z,94893
2018-05-01T06:45:19.137Z,94901
2018-05-01T06:47:48.505Z,94909
2018-05-01T06:50:18.037Z,94912
2018-05-01T06:52:47.409Z,94913
2018-05-01T06:55:17.043Z,94909
2018-05-01T06:57:46.628Z,94923
2018-05-01T07:00:16.219Z,94919
2018-05-01T07:02:46.428Z,94932
2018-05-01T07:05:16.231Z,94916
2018-05-01T07:07:46.141Z,94932
2018-05-01T07:10:15.675Z,94932
2018-05-01T07:12:45.247Z,94927
2018-05-01T07:15:15.316Z,94941
2018-05-01T07:17:44.686Z,94945
2018-05-01T07:20:14.028Z,94941
2018-05-01T07:22:43.597Z,94936
2018-05-01T07:25:13.060Z,94937
2018-05-01T07:27:42.601Z,94943
2018-05-01T07:30:12.074Z,94943
2018-05-01T07:32:41.434Z,94952
2018-05-01T07:35:11.287Z,94957
2018-05-01T07:37:41.041Z,94949
2018-05-01T07:40:10.489Z,94952
2018-05-01T07:42:40.154Z,94954
2018-05-01T07:45:09.798Z,94952
2018-05-01T07:47:39.163Z,94950
2018-05-01T07:50:08.669Z,94953
2018-05-01T07:52:38.066Z,94948
2018-05-01T07:55:07.483Z,94952
2018-05-01T07:57:36.884Z,94967
2018-05-01T08:00:06.369Z,94957
2018-05-01T08:02:35.942Z,94968
2018-05-01T08:05:05.652Z,94969
2018-05-01T08:07:35.182Z,94966
2018-05-01T08:10:04.565Z,94972
2018-05-01T08:12:33.986Z,94966
2018-05-01T08:15:04.688Z,94971
2018-05-01T08:17:34.285Z,94982
2018-05-01T08:20:04.109Z,94980
2018-05-01T08:22:34.283Z,94981
2018-05-01T08:25:03.684Z,94984
2018-05-01T08:27:33.262Z,94987
2018-05-01T08:30:02.780Z,94980
2018-05-01T08:32:32.313Z,94983
2018-05-01T08:35:01.719Z,94997
2018-05-01T08:37:32.041Z,94993
2018-05-01T08:40:01.589Z,95020
2018-05-01T08:42:31.514Z,94996
2018-05-01T08:45:01.159Z,94995
2018-05-01T08:47:30.821Z,94993
2018-05-01T08:50:00.216Z,94997
2018-05-01T08:52:30.474Z,95001
2018-05-01T08:55:00.608Z,95005
2018-05-01T08:57:30.007Z,95018
2018-05-01T09:00:00.245Z,95015
2018-05-01T09:02:29.733Z,95007
2018-05-01T09:04:59.229Z,95004
2018-05-01T09:07:28.799Z,95024
2018-05-01T09:09:58.446Z,95014
2018-05-01T09:12:27.998Z,95020
2018-05-01T09:14:57.399Z,95015
2018-05-01T09:17:26.881Z,95035
2018-05-01T09:19:56.634Z,95015
2018-05-01T09:22:26.315Z,95018
2018-05-01T09:24:56.019Z,95021
2018-05-01T09:27:25.401Z,95018
2018-05-01T09:29:54.954Z,95023
2018-05-01T09:32:24.739Z,95031
2018-05-01T09:34:54.153Z,95034
2018-05-01T09:37:23.836Z,95016
2018-05-01T09:39:53.435Z,95025
2018-05-01T09:42:23.075Z,95032
2018-05-01T09:44:52.752Z,95029
2018-05-01T09:47:22.485Z,95026
2018-05-01T09:49:52.168Z,95021
2018-05-01T09:52:23.676Z,95025
2018-05-01T09:54:56.214Z,95017
2018-05-01T09:57:28.092Z,95014
2018-05-01T09:59:59.420Z,95009
2018-05-01T10:02:31.648Z,95018
2018-05-01T10:05:03.320Z,95008
2018-05-01T10:07:35.244Z,95021
2018-05-01T10:10:06.750Z,95018
2018-05-01T10:12:38.167Z,95028
2018-05-01T10:15:09.787Z,95041
2018-05-01T10:17:41.284Z,95053
2018-05-01T10:20:12.518Z,95058
2018-05-01T10:22:44.401Z,95064
2018-05-01T10:25:15.851Z,95057
2018-05-01T10:27:47.471Z,95059
2018-05-01T10:30:19.171Z,95060
2018-05-01T10:32:50.456Z,95068
2018-05-01T10:35:22.152Z,95084
2018-05-01T10:37:53.472Z,95101
2018-05-01T10:40:24.623Z,95076
2018-05-01T10:42:55.831Z,95073
2018-05-01T10:45:27.194Z,95074
2018-05-01T10:47:58.552Z,95073
2018-05-01T10:50:29.851Z,95070
2018-05-01T10:53:01.127Z,95071
2018-05-01T10:55:32.424Z,95071
2018-05-01T10:58:03.590Z,95071
2018-05-01T11:00:34.946Z,95075
2018-05-01T11:03:06.504Z,95081
2018-05-01T11:05:37.947Z,95087
2018-05-01T11:08:09.205Z,95083
2018-05-01T11:10:40.475Z,95081
2018-05-01T11:13:11.765Z,95083
2018-05-01T11:15:47.470Z,95081
2018-05-01T11:18:18.656Z,95089
2018-05-01T11:20:49.791Z,95094
2018-05-01T11:23:21.183Z,95100
2018-05-01T11:25:53.224Z,95095
2018-05-01T11:28:24.612Z,95101
2018-05-01T11:30:55.925Z,95107
2018-05-01T11:33:27.597Z,95111
2018-05-01T11:35:59.137Z,95109
2018-05-01T11:38:32.196Z,95114
2018-05-01T11:41:03.856Z,95116
2018-05-01T11:43:35.197Z,95117
2018-05-01T11:46:06.530Z,95120
2018-05-01T11:48:37.836Z,95114
2018-05-01T11:51:09.462Z,95114
2018-05-01T11:53:40.772Z,95122
2018-05-01T11:56:12.032Z,95121
2018-05-01T11:58:43.378Z,95124
2018-05-01T12:01:14.639Z,95126
2018-05-01T12:03:45.920Z,95123
2018-05-01T12:06:17.400Z,95120
2018-05-01T12:08:49.793Z,95115
2018-05-01T12:11:21.025Z,95124
2018-05-01T12:13:52.237Z,95127
2018-05-01T12:16:23.328Z,95126
2018-05-01T12:18:54.441Z,95129
2018-05-01T12:21:25.528Z,95137
2018-05-01T12:23:57.325Z,95132
2018-05-01T12:26:28.732Z,95135
2018-05-01T12:28:59.878Z,95140
2018-05-01T12:31:31.904Z,95147
2018-05-01T12:34:03.068Z,95137
2018-05-01T12:36:34.953Z,95131
2018-05-01T12:39:06.302Z,95133
2018-05-01T12:41:38.125Z,95133
2018-05-01T12:44:10.001Z,95127
2018-05-01T12:46:41.044Z,95128
2018-05-01T12:49:12.391Z,95114
2018-05-01T12:51:43.695Z,95118
2018-05-01T12:54:15.822Z,95103
2018-05-01T12:56:46.945Z,95108
2018-05-01T12:59:18.382Z,95100
2018-05-01T13:01:49.790Z,95107
2018-05-01T13:04:21.358Z,95119
2018-05-01T13:06:52.520Z,95124
2018-05-01T13:09:23.881Z,95116
2018-05-01T13:11:55.486Z,95108
2018-05-01T13:14:26.669Z,95107
2018-05-01T13:16:57.885Z,95118
2018-05-01T13:19:29.029Z,95131
2018-05-01T13:22:00.069Z,95133
2018-05-01T13:24:32.861Z,95129
2018-05-01T13:27:04.141Z,95130
2018-05-01T13:29:35.349Z,95128
2018-05-01T13:32:06.637Z,95119
2018-05-01T13:34:37.743Z,95118
2018-05-01T13:37:08.902Z,95126
2018-05-01T13:39:40.061Z,95134
2018-05-01T13:42:11.127Z,95143
2018-05-01T13:44:42.444Z,95139
2018-05-01T13:47:13.542Z,95135
2018-05-01T13:49:45.290Z,95131
2018-05-01T13:52:16.393Z,95133
2018-05-01T13:54:47.559Z,95138
2018-05-01T13:57:20.227Z,95140
2018-05-01T13:59:51.707Z,95124
2018-05-01T14:02:23.712Z,95129
2018-05-01T14:04:54.901Z,95128
2018-05-01T14:07:26.429Z,95128
2018-05-01T14:09:57.719Z,95130
2018-05-01T14:12:29.963Z,95139
2018-05-01T14:15:01.950Z,95139
2018-05-01T14:17:33.105Z,95143
2018-05-01T14:20:04.676Z,95137
2018-05-01T14:22:35.685Z,95123
2018-05-01T14:25:07.314Z,95134
2018-05-01T14:27:38.647Z,95131
2018-05-01T14:30:09.896Z,95124
2018-05-01T14:32:41.131Z,95124
2018-05-01T14:35:12.656Z,95127
2018-05-01T14:37:43.867Z,95122
2018-05-01T14:40:15.051Z,95125
2018-05-01T14:42:46.017Z,95131
2018-05-01T14:45:17.238Z,95128
2018-05-01T14:47:49.516Z,95138
2018-05-01T14:50:20.753Z,95134
2018-05-01T14:52:52.886Z,95135
2018-05-01T14:55:24.050Z,95130
2018-05-01T14:57:54.940Z,95124
2018-05-01T15:00:26.261Z,95126
2018-05-01T15:03:04.473Z,95125
2018-05-01T15:05:35.987Z,95123
2018-05-01T15:08:07.221Z,95125
2018-05-01T15:10:38.206Z,95125
2018-05-01T15:13:09.426Z,95128
2018-05-01T15:15:40.664Z,95122
2018-05-01T15:18:11.756Z,95113
2018-05-01T15:20:43.018Z,95118
2018-05-01T15:23:14.353Z,95115
2018-05-01T15:25:45.810Z,95107
2018-05-01T15:28:17.376Z,95112
2018-05-01T15:30:49.047Z,95115
2018-05-01T15:33:20.226Z,95124
2018-05-01T15:35:51.387Z,95127
2018-05-01T15:38:22.633Z,95127
2018-05-01T15:40:53.889Z,95124
2018-05-01T15:43:24.969Z,95128
2018-05-01T15:45:56.627Z,95121
2018-05-01T15:48:28.043Z,95125
2018-05-01T15:50:59.271Z,95120
2018-05-01T15:53:30.407Z,95113
2018-05-01T15:56:02.737Z,95112
2018-05-01T15:58:33.682Z,95122
2018-05-01T16:01:05.368Z,95123
2018-05-01T16:03:36.266Z,95122
2018-05-01T16:06:07.824Z,95118
2018-05-01T16:08:38.837Z,95118
2018-05-01T16:11:09.897Z,95116
2018-05-01T16:13:41.297Z,95110
2018-05-01T16:16:12.637Z,95108
2018-05-01T16:18:43.834Z,95110
2018-05-01T16:21:15.099Z,95118
2018-05-01T16:23:46.289Z,95118
2018-05-01T16:26:17.422Z,95112
2018-05-01T16:28:48.733Z,95114
2018-05-01T16:31:19.906Z,95116
2018-05-01T16:33:51.095Z,95118
2018-05-01T16:36:22.606Z,95121
2018-05-01T16:38:53.694Z,95116
2018-05-01T16:41:25.020Z,95114
2018-05-01T16:43:56.271Z,95119
2018-05-01T16:46:27.810Z,95117
2018-05-01T16:48:59.220Z,95109
2018-05-01T16:51:30.883Z,95118
2018-05-01T16:54:02.052Z,95115
2018-05-01T16:56:33.315Z,95114
2018-05-01T16:59:04.667Z,95112
2018-05-01T17:01:35.763Z,95112
2018-05-01T17:04:07.018Z,95115
2018-05-01T17:06:38.889Z,95119
2018-05-01T17:09:09.944Z,95120
2018-05-01T17:11:41.217Z,95129
2018-05-01T17:14:12.505Z,95131
2018-05-01T17:16:44.233Z,95136
2018-05-01T17:19:15.490Z,95143
2018-05-01T17:21:46.858Z,95148
2018-05-01T17:24:18.181Z,95149
2018-05-01T17:26:49.993Z,95147
2018-05-01T17:29:21.157Z,95148
2018-05-01T17:31:52.737Z,95144
2018-05-01T17:34:24.410Z,95144
2018-05-01T17:36:55.886Z,95143
2018-05-01T17:39:26.907Z,95137
2018-05-01T17:41:59.368Z,95145
2018-05-01T17:44:31.791Z,95153
2018-05-01T17:47:04.904Z,95152
2018-05-01T17:49:40.194Z,95163
2018-05-01T17:52:11.756Z,95161
2018-05-01T17:54:42.996Z,95167
2018-05-01T17:57:14.606Z,95164
2018-05-01T17:59:45.795Z,95171
2018-05-01T18:02:17.368Z,95165
2018-05-01T18:04:49.598Z,95165
2018-05-01T18:07:20.898Z,95166
2018-05-01T18:09:53.941Z,95169
2018-05-01T18:12:25.250Z,95174
2018-05-01T18:14:56.298Z,95171
2018-05-01T18:17:27.422Z,95178
2018-05-01T18:19:58.463Z,95185
2018-05-01T18:22:30.801Z,95191
2018-05-01T18:25:01.858Z,95195
2018-05-01T18:27:33.859Z,95194
2018-05-01T18:30:04.996Z,95199
2018-05-01T18:32:36.601Z,95199
2018-05-01T18:35:07.696Z,95202
2018-05-01T18:37:39.642Z,95200
2018-05-01T18:40:10.578Z,95206
2018-05-01T18:42:41.820Z,95209
2018-05-01T18:45:12.880Z,95216
2018-05-01T18:47:44.623Z,95211
2018-05-01T18:50:15.639Z,95218
2018-05-01T18:52:46.960Z,95214
2018-05-01T18:55:18.548Z,95224
2018-05-01T18:57:49.781Z,95230
2018-05-01T19:00:20.825Z,95238
2018-05-01T19:02:52.167Z,95239
2018-05-01T19:05:23.121Z,95243
2018-05-01T19:07:54.730Z,95235
2018-05-01T19:10:26.093Z,95242
2018-05-01T19:12:58.009Z,95243
2018-05-01T19:15:30.259Z,95235
2018-05-01T19:18:02.319Z,95240
2018-05-01T19:20:33.281Z,95240
2018-05-01T19:23:04.406Z,95246
2018-05-01T19:25:35.669Z,95251
2018-05-01T19:28:06.768Z,95255
2018-05-01T19:30:54.320Z,95261
2018-05-01T19:33:27.024Z,95264
2018-05-01T19:35:58.581Z,95264
2018-05-01T19:38:30.625Z,95265
2018-05-01T19:41:03.116Z,95269
2018-05-01T19:43:34.624Z,95271
2018-05-01T19:46:05.948Z,95268
2018-05-01T19:48:37.160Z,95270
2018-05-01T19:51:15.155Z,95275
2018-05-01T19:54:03.430Z,95283
2018-05-01T19:56:37.705Z,95279
2018-05-01T19:59:08.716Z,95272
2018-05-01T20:01:55.253Z,95278
2018-05-01T20:04:26.735Z,95279
2018-05-01T20:06:57.433Z,95281
2018-05-01T20:09:28.328Z,95274
2018-05-01T20:11:59.037Z,95276
2018-05-01T20:14:29.825Z,95288
2018-05-01T20:17:00.567Z,95299
2018-05-01T20:19:31.538Z,95305
2018-05-01T20:22:02.348Z,95303
2018-05-01T20:24:33.084Z,95306
2018-05-01T20:27:03.750Z,95303
2018-05-01T20:29:34.780Z,95310
2018-05-01T20:32:05.470Z,95317
2018-05-01T20:34:36.151Z,95313
2018-05-01T20:37:06.844Z,95316
2018-05-01T20:39:37.989Z,95318
2018-05-01T20:42:08.533Z,95316
2018-05-01T20:44:39.201Z,95316
2018-05-01T20:47:09.918Z,95311
2018-05-01T20:49:41.040Z,95314
2018-05-01T20:52:11.660Z,95314
2018-05-01T20:54:42.690Z,95311
2018-05-01T20:57:13.345Z,95313
2018-05-01T20:59:44.288Z,95316
2018-05-01T21:02:15.004Z,95316
2018-05-01T21:04:45.646Z,95324
2018-05-01T21:07:16.217Z,95329
2018-05-01T21:09:47.907Z,95329
2018-05-01T21:12:18.557Z,95326
2018-05-01T21:14:49.220Z,95328
2018-05-01T21:17:19.869Z,95322
2018-05-01T21:19:50.663Z,95325
2018-05-01T21:22:21.241Z,95326
2018-05-01T21:24:51.928Z,95332
2018-05-01T21:27:22.594Z,95331
2018-05-01T21:29:53.480Z,95332
2018-05-01T21:32:24.039Z,95327
2018-05-01T21:34:54.632Z,95323
2018-05-01T21:37:25.256Z,95317
2018-05-01T21:39:56.092Z,95323
2018-05-01T21:42:26.796Z,95324
2018-05-01T21:44:57.419Z,95336
2018-05-01T21:47:28.048Z,95339
2018-05-01T21:49:59.009Z,95336
2018-05-01T21:52:29.579Z,95346
2018-05-01T21:55:00.099Z,95350
2018-05-01T21:57:30.588Z,95351
2018-05-01T22:00:02.304Z,95347
2018-05-01T22:02:33.140Z,95353
2018-05-01T22:05:03.975Z,95353
2018-05-01T22:07:34.680Z,95351
2018-05-01T22:10:05.402Z,95350
2018-05-01T22:12:35.988Z,95348
2018-05-01T22:15:08.425Z,95346
2018-05-01T22:17:39.463Z,95349
2018-05-01T22:20:10.279Z,95357
2018-05-01T22:22:40.799Z,95357
2018-05-01T22:25:11.560Z,95359
2018-05-01T22:27:42.042Z,95352
2018-05-01T22:30:13.347Z,95354
2018-05-01T22:32:43.955Z,95357
2018-05-01T22:35:14.777Z,95361
2018-05-01T22:37:45.378Z,95361
2018-05-01T22:40:16.004Z,95363
2018-05-01T22:42:46.689Z,95368
2018-05-01T22:45:17.469Z,95373
2018-05-01T22:47:48.097Z,95375
2018-05-01T22:50:19.100Z,95380
2018-05-01T22:52:49.760Z,95379
2018-05-01T22:55:20.528Z,95373
2018-05-01T22:57:51.157Z,95376
2018-05-01T23:00:22.905Z,95377
2018-05-01T23:02:53.320Z,95368
2018-05-01T23:05:24.119Z,95371
2018-05-01T23:07:54.744Z,95368
2018-05-01T23:10:25.381Z,95364
2018-05-01T23:12:56.238Z,95369
2018-05-01T23:15:26.998Z,95370
2018-05-01T23:17:57.867Z,95377
2018-05-01T23:20:28.640Z,95380
2018-05-01T23:22:59.209Z,95371
2018-05-01T23:25:30.178Z,95366
2018-05-01T23:28:00.831Z,95366
2018-05-01T23:30:31.950Z,95360
2018-05-01T23:33:02.568Z,95362
2018-05-01T23:35:33.188Z,95359
2018-05-01T23:38:03.890Z,95359
2018-05-01T23:40:34.580Z,95353
2018-05-01T23:43:05.104Z,95356
2018-05-01T23:45:35.796Z,95355
2018-05-01T23:48:06.372Z,95357
2018-05-01T23:50:37.069Z,95353
2018-05-01T23:53:07.722Z,95349
2018-05-01T23:55:38.590Z,95353
2018-05-01T23:58:09.221Z,95355
